Time;durP1;ratioP1;P1;durP2;ratioP2;P2;SDS_P1;SDS_P2;PMS_P1;PMS_P2;Temp;Humidity;BMP_temperature;BMP_pressure;BME280_temperature;BME280_humidity;BME280_pressure;Samples;Min_cycle;Max_cycle;Signal;HPM_P1;HPM_P2
2022/12/29 00:01:23;;;;;;;6.40;4.80;;;;;;;-0.53;87.57;101096.78;5013689;28;20029;-68
2022/12/29 00:03:49;;;;;;;6.57;4.93;;;;;;;-0.53;87.88;101091.56;5014157;28;20030;-67
2022/12/29 00:06:14;;;;;;;7.67;4.47;;;;;;;-0.43;87.10;101104.97;5031460;28;20021;-69
2022/12/29 00:08:40;;;;;;;6.60;4.53;;;;;;;-0.42;87.26;101090.97;5031674;28;20025;-68
2022/12/29 00:11:08;;;;;;;6.17;4.53;;;;;;;-0.36;87.02;101095.84;5031513;28;20030;-66
2022/12/29 00:16:18;;;;;;;7.93;4.30;;;;;;;-0.43;86.80;101089.28;5034197;28;20275;-68
2022/12/29 00:18:43;;;;;;;9.23;4.00;;;;;;;-0.43;87.50;101084.03;5017471;28;20264;-67
2022/12/29 00:35:26;;;;;;;4.57;3.60;;;;;;;-0.41;88.30;101100.50;5035126;28;20260;-66
2022/12/29 00:46:04;;;;;;;5.50;2.77;;;;;;;-0.33;88.21;101114.84;5035170;28;20379;-67
2022/12/29 00:51:13;;;;;;;4.00;2.40;;;;;;;-0.24;87.72;101129.22;5034787;28;20119;-67
2022/12/29 00:53:39;;;;;;;10.77;2.43;;;;;;;-0.25;87.67;101122.28;5016967;28;20356;-68
2022/12/29 00:56:04;;;;;;;3.03;2.00;;;;;;;-0.22;87.09;101127.34;5035069;28;20036;-66
2022/12/29 00:58:30;;;;;;;5.83;2.40;;;;;;;-0.18;86.88;101126.25;5035023;28;20464;-69
2022/12/29 01:01:08;;;;;;;5.03;2.20;;;;;;;-0.21;87.46;101129.03;5034818;28;20021;-67
2022/12/29 01:03:37;;;;;;;3.50;2.20;;;;;;;-0.25;87.38;101127.53;5034617;28;20252;-69
2022/12/29 01:06:05;;;;;;;4.33;2.40;;;;;;;-0.25;88.12;101131.91;5034871;28;20264;-68
2022/12/29 01:08:32;;;;;;;2.80;2.15;;;;;;;-0.28;87.68;101124.25;5034879;28;20711;-66
2022/12/29 01:11:09;;;;;;;4.73;2.90;;;;;;;-0.23;87.67;101130.06;5034720;28;20033;-70
2022/12/29 01:13:35;;;;;;;5.13;2.30;;;;;;;-0.25;87.53;101124.91;5034771;28;20263;-68
2022/12/29 01:16:01;;;;;;;5.10;2.57;;;;;;;-0.31;87.58;101123.44;5000800;28;20329;-68
2022/12/29 01:18:28;;;;;;;3.33;2.43;;;;;;;-0.28;87.83;101119.00;5016857;28;20304;-67
2022/12/29 01:21:02;;;;;;;3.87;2.60;;;;;;;-0.23;87.70;101120.44;5000549;28;20310;-66
2022/12/29 01:23:29;;;;;;;3.80;2.30;;;;;;;-0.15;88.14;101126.06;5000645;28;20044;-69
2022/12/29 01:25:55;;;;;;;4.80;2.60;;;;;;;-0.20;87.63;101112.41;5034708;28;20306;-68
2022/12/29 01:28:21;;;;;;;12.47;2.63;;;;;;;-0.26;87.55;101112.75;5016694;28;20276;-68
2022/12/29 01:30:46;;;;;;;2.43;1.87;;;;;;;-0.29;87.25;101112.03;5016926;28;20120;-69
2022/12/29 01:33:11;;;;;;;3.07;2.10;;;;;;;-0.25;87.11;101127.53;5034509;28;20036;-65
2022/12/29 01:35:37;;;;;;;2.47;1.97;;;;;;;-0.26;86.70;101119.75;5034214;28;20032;-69
2022/12/29 01:38:02;;;;;;;3.80;2.00;;;;;;;-0.20;86.70;101130.72;5036095;28;20155;-68
2022/12/29 01:40:28;;;;;;;3.77;2.10;;;;;;;-0.35;86.68;101129.78;5019302;28;20120;-69
2022/12/29 01:42:54;;;;;;;5.23;2.23;;;;;;;-0.40;87.29;101123.97;5037794;28;20053;-69
2022/12/29 01:45:22;;;;;;;4.57;2.03;;;;;;;-0.33;87.28;101120.06;5033953;28;20033;-65
2022/12/29 01:48:04;;;;;;;8.32;3.05;;;;;;;-0.38;87.21;101122.09;5033845;28;20287;-69
2022/12/29 01:50:33;;;;;;;7.63;2.10;;;;;;;-0.41;87.61;101117.03;5034281;28;20029;-66
2022/12/29 01:53:11;;;;;;;3.33;2.05;;;;;;;-0.68;87.73;101074.06;5033775;28;20260;-67
2022/12/29 01:55:44;;;;;;;2.15;1.95;;;;;;;-0.35;86.57;101121.09;5034371;28;20022;-67
2022/12/29 01:58:12;;;;;;;3.93;1.90;;;;;;;-0.35;85.97;101123.69;5016170;28;20037;-66
2022/12/29 02:00:38;;;;;;;5.20;2.40;;;;;;;-0.37;86.05;101126.41;5036818;28;20291;-67
2022/12/29 02:03:05;;;;;;;4.27;2.23;;;;;;;-0.40;86.88;101136.19;5036994;28;20026;-66
2022/12/29 02:05:42;;;;;;;2.90;1.83;;;;;;;-0.38;86.57;101143.03;5036604;28;20087;-68
2022/12/29 02:08:09;;;;;;;8.50;3.13;;;;;;;-0.37;86.85;101133.41;5033759;28;20322;-67
2022/12/29 02:10:36;;;;;;;6.30;2.07;;;;;;;-0.32;86.36;101124.38;5033741;28;20724;-68
2022/12/29 02:13:02;;;;;;;5.73;3.10;;;;;;;-0.20;85.68;101141.19;5034076;28;20369;-68
2022/12/29 02:15:33;;;;;;;3.77;2.03;;;;;;;-0.38;86.30;101101.16;5033818;28;20740;-67
2022/12/29 02:18:28;;;;;;;2.70;2.20;;;;;;;-0.20;86.17;101129.88;5033744;28;20280;-68
2022/12/29 02:21:42;;;;;;;4.63;2.17;;;;;;;-0.14;86.48;101145.25;5003143;28;20292;-67
2022/12/29 02:24:32;;;;;;;3.93;2.67;;;;;;;-0.15;86.07;101140.94;5006894;28;20350;-66
2022/12/29 02:27:35;;;;;;;4.03;2.77;;;;;;;-0.16;86.40;101134.84;5032984;28;20268;-68
2022/12/29 02:30:17;;;;;;;5.20;2.80;;;;;;;-0.16;85.65;101136.63;5033365;28;20264;-67
2022/12/29 02:32:56;;;;;;;5.20;3.03;;;;;;;-0.15;84.67;101138.31;5033294;28;20302;-66
2022/12/29 02:35:36;;;;;;;5.82;3.72;;;;;;;-0.16;85.11;101142.72;5033024;28;20299;-68
2022/12/29 02:38:41;;;;;;;6.13;3.23;;;;;;;-0.20;85.04;101135.97;5033035;28;20484;-67
2022/12/29 02:41:28;;;;;;;5.77;2.40;;;;;;;-0.21;85.19;101147.38;5033186;28;20398;-68
2022/12/29 02:44:24;;;;;;;5.20;2.80;;;;;;;-0.33;85.34;101130.53;5014733;28;20272;-66
2022/12/29 02:46:59;;;;;;;6.47;2.80;;;;;;;-0.29;86.17;101135.59;5032778;28;20299;-66
2022/12/29 02:49:34;;;;;;;5.40;2.60;;;;;;;-0.37;85.70;101129.03;5032773;28;20755;-67
2022/12/29 02:52:18;;;;;;;7.27;2.90;;;;;;;-0.42;85.68;101140.69;5032424;28;20256;-67
2022/12/29 02:54:43;;;;;;;10.40;2.73;;;;;;;-0.41;86.25;101139.75;5032646;28;20264;-67
2022/12/29 02:57:31;;;;;;;6.53;2.57;;;;;;;-0.42;85.98;101131.06;5032405;28;20256;-67
2022/12/29 03:00:02;;;;;;;3.90;2.05;;;;;;;-0.44;84.94;101138.13;5014410;28;20036;-69
2022/12/29 03:03:06;;;;;;;4.20;2.63;;;;;;;-0.41;84.50;101140.59;5032286;28;20072;-65
2022/12/29 03:05:47;;;;;;;6.63;2.60;;;;;;;-0.41;84.29;101143.22;5014724;28;20435;-67
2022/12/29 03:08:27;;;;;;;4.30;2.30;;;;;;;-0.33;85.61;101143.63;5032264;28;20532;-66
2022/12/29 03:17:10;;;;;;;8.20;2.67;;;;;;;-0.32;84.58;101147.94;4936292;29;20334;-68
2022/12/29 03:19:47;;;;;;;7.07;2.77;;;;;;;-0.39;84.77;101151.81;5003399;28;20644;-66
2022/12/29 03:22:27;;;;;;;3.57;2.87;;;;;;;-0.35;85.42;101158.56;5032284;28;20268;-68
2022/12/29 03:24:57;;;;;;;3.10;2.60;;;;;;;-0.35;85.90;101142.88;5031914;28;20335;-68
2022/12/29 03:27:28;;;;;;;3.87;2.77;;;;;;;-0.21;85.04;101154.38;5031762;28;20252;-67
2022/12/29 03:30:00;;;;;;;4.00;2.23;;;;;;;-0.13;84.72;101154.78;5032066;28;20259;-66
2022/12/29 03:32:32;;;;;;;3.87;2.80;;;;;;;-0.12;84.08;101153.84;5032223;28;20264;-67
2022/12/29 03:34:58;;;;;;;4.97;3.20;;;;;;;-0.19;83.98;101136.81;5013895;28;20264;-69
2022/12/29 03:37:31;;;;;;;5.63;3.13;;;;;;;-0.13;84.88;101150.41;5031784;28;20355;-66
2022/12/29 03:39:57;;;;;;;6.50;3.30;;;;;;;-0.20;83.51;101148.19;5013883;28;20395;-67
2022/12/29 03:42:28;;;;;;;3.67;2.50;;;;;;;-0.32;83.96;101142.69;5031514;28;20284;-68
2022/12/29 03:44:56;;;;;;;7.17;2.63;;;;;;;-0.31;84.49;101154.84;5031675;28;20292;-66
2022/12/29 03:47:23;;;;;;;8.57;2.33;;;;;;;-0.27;85.04;101149.47;5032183;28;20256;-67
2022/12/29 03:49:49;;;;;;;4.03;2.50;;;;;;;-0.23;85.24;101149.22;5032227;28;20274;-66
2022/12/29 03:52:14;;;;;;;5.27;2.73;;;;;;;-0.23;84.36;101145.75;5033697;28;20596;-67
2022/12/29 03:54:40;;;;;;;3.27;2.60;;;;;;;-0.35;84.18;101148.09;5032969;28;20310;-67
2022/12/29 03:57:06;;;;;;;6.13;2.50;;;;;;;-0.39;83.86;101158.81;5032878;28;20473;-68
2022/12/29 03:59:31;;;;;;;4.27;2.60;;;;;;;-0.47;84.51;101143.53;5033672;28;20037;-68
2022/12/29 04:01:57;;;;;;;8.67;2.80;;;;;;;-0.38;85.32;101153.50;5015199;28;20488;-68
2022/12/29 04:04:22;;;;;;;8.53;2.97;;;;;;;-0.31;84.34;101149.63;5032535;28;20052;-67
2022/12/29 04:06:48;;;;;;;7.93;4.03;;;;;;;-0.29;83.91;101146.06;4998471;28;20029;-68
2022/12/29 04:09:13;;;;;;;5.33;2.53;;;;;;;-0.43;83.88;101139.84;4998636;28;20461;-67
2022/12/29 04:11:39;;;;;;;4.80;3.13;;;;;;;-0.50;84.37;101143.72;5033141;28;20029;-68
2022/12/29 04:14:05;;;;;;;5.63;3.03;;;;;;;-0.64;84.25;101139.19;4999068;28;20030;-68
2022/12/29 04:16:30;;;;;;;4.80;3.33;;;;;;;-0.72;84.39;101143.16;4983090;28;20045;-67
2022/12/29 04:18:56;;;;;;;5.60;3.90;;;;;;;-0.75;85.26;101140.72;5015298;28;20052;-67
2022/12/29 04:21:21;;;;;;;6.17;3.20;;;;;;;-0.85;85.48;101123.84;4998227;28;20025;-68
2022/12/29 04:23:48;;;;;;;5.70;3.20;;;;;;;-0.86;85.63;101140.44;5014139;28;20040;-67
2022/12/29 04:26:14;;;;;;;7.73;3.00;;;;;;;-0.90;85.96;101146.72;5015435;28;20260;-66
2022/12/29 04:28:39;;;;;;;8.13;4.77;;;;;;;-0.89;86.70;101151.03;5034072;28;20060;-67
2022/12/29 04:31:05;;;;;;;6.07;3.07;;;;;;;-0.81;86.68;101159.34;5017088;28;20032;-66
2022/12/29 04:33:31;;;;;;;5.73;3.27;;;;;;;-0.79;87.35;101126.13;5000666;28;20025;-66
2022/12/29 04:35:56;;;;;;;3.83;3.23;;;;;;;-0.57;86.77;101151.97;5034093;28;20064;-66
2022/12/29 04:38:23;;;;;;;7.63;3.77;;;;;;;-0.53;86.08;101143.88;5016800;28;20029;-68
2022/12/29 04:40:50;;;;;;;6.10;5.50;;;;;;;-0.48;86.88;101144.47;4998650;28;20029;-66
2022/12/29 04:43:16;;;;;;;10.73;4.10;;;;;;;-0.48;85.80;101141.84;5031797;28;20272;-66
2022/12/29 04:45:46;;;;;;;6.80;4.80;;;;;;;-0.51;85.97;101149.88;5031816;28;20302;-66
2022/12/29 04:48:12;;;;;;;5.47;4.20;;;;;;;-0.65;86.26;101128.81;5031427;28;20267;-66
2022/12/29 04:50:38;;;;;;;9.80;4.30;;;;;;;-0.48;86.70;101147.09;5031684;28;20256;-68
2022/12/29 04:53:04;;;;;;;6.33;3.50;;;;;;;-0.41;85.20;101153.66;5031715;28;20026;-68
2022/12/29 04:55:29;;;;;;;5.53;3.00;;;;;;;-0.42;85.68;101161.59;5014321;28;20276;-69
2022/12/29 04:57:55;;;;;;;6.37;2.73;;;;;;;-0.48;85.76;101154.09;4998510;28;20030;-67
2022/12/29 05:00:21;;;;;;;6.10;3.00;;;;;;;-0.49;84.93;101148.00;5014317;28;20124;-66
2022/12/29 05:02:47;;;;;;;4.40;3.23;;;;;;;-0.51;84.63;101149.03;5017307;28;20033;-68
2022/12/29 05:05:12;;;;;;;10.03;5.00;;;;;;;-0.57;84.90;101147.59;5035128;28;20033;-69
2022/12/29 05:07:38;;;;;;;7.23;4.20;;;;;;;-0.60;85.10;101149.50;5035120;28;20033;-68
2022/12/29 05:10:06;;;;;;;11.33;4.37;;;;;;;-0.52;84.84;101150.81;5035956;28;20026;-72
2022/12/29 05:12:33;;;;;;;8.57;4.07;;;;;;;-0.48;84.27;101148.88;5036656;28;20489;-71
2022/12/29 05:14:58;;;;;;;8.23;4.70;;;;;;;-0.49;84.37;101155.03;5002054;28;20116;-67
2022/12/29 05:17:24;;;;;;;7.60;4.13;;;;;;;-0.57;85.08;101152.81;5036500;28;20345;-67
2022/12/29 05:19:50;;;;;;;7.03;3.60;;;;;;;-0.60;84.93;101158.19;5000646;28;20393;-69
2022/12/29 05:22:16;;;;;;;6.67;3.50;;;;;;;-0.56;85.35;101164.13;5017083;28;20137;-68
2022/12/29 05:24:41;;;;;;;8.50;4.33;;;;;;;-0.55;85.31;101157.97;5034676;28;20029;-66
2022/12/29 05:27:07;;;;;;;6.13;3.67;;;;;;;-0.57;85.44;101162.44;5034684;28;20025;-68
2022/12/29 05:29:32;;;;;;;6.03;4.23;;;;;;;-0.57;86.41;101160.69;5016983;28;20030;-68
2022/12/29 05:31:58;;;;;;;8.53;4.03;;;;;;;-0.61;85.44;101161.72;5034386;28;20021;-69
2022/12/29 05:34:23;;;;;;;7.43;3.47;;;;;;;-0.63;85.74;101163.59;5034370;28;20026;-69
2022/12/29 05:36:49;;;;;;;8.90;4.33;;;;;;;-0.69;85.53;101156.91;5034155;28;20112;-67
2022/12/29 05:39:14;;;;;;;5.60;3.00;;;;;;;-0.65;86.00;101165.44;5034332;28;20033;-70
2022/12/29 05:41:41;;;;;;;7.93;3.40;;;;;;;-0.58;85.50;101172.03;5016525;28;20477;-69
2022/12/29 05:44:06;;;;;;;5.43;3.70;;;;;;;-0.57;85.52;101168.53;5016863;28;20136;-69
2022/12/29 05:46:32;;;;;;;4.97;3.10;;;;;;;-0.59;85.97;101170.34;5034193;28;20257;-69
2022/12/29 05:48:57;;;;;;;6.10;3.43;;;;;;;-0.60;85.81;101166.03;5016215;28;20025;-68
2022/12/29 05:51:23;;;;;;;10.40;3.83;;;;;;;-0.67;86.01;101162.06;5034072;28;20041;-69
2022/12/29 05:53:49;;;;;;;7.17;4.00;;;;;;;-0.62;86.43;101165.28;5034097;28;20380;-68
2022/12/29 05:56:15;;;;;;;11.40;4.20;;;;;;;-0.56;86.63;101175.44;5034356;28;20029;-68
2022/12/29 05:58:41;;;;;;;5.83;4.10;;;;;;;-0.56;86.21;101167.59;5034162;28;20108;-70
2022/12/29 06:01:06;;;;;;;6.93;4.20;;;;;;;-0.63;85.87;101168.81;5034326;28;20044;-70
2022/12/29 06:03:32;;;;;;;11.93;4.37;;;;;;;-0.60;86.20;101178.28;5033972;28;20037;-68
2022/12/29 06:05:57;;;;;;;8.57;4.23;;;;;;;-0.59;86.01;101175.56;5033762;28;20033;-66
2022/12/29 06:08:23;;;;;;;10.70;5.87;;;;;;;-0.58;85.77;101177.25;5033995;28;20049;-69
2022/12/29 06:10:49;;;;;;;7.97;4.30;;;;;;;-0.57;86.23;101180.75;5034082;28;20059;-68
2022/12/29 06:13:15;;;;;;;9.80;5.23;;;;;;;-0.54;86.58;101189.28;5039103;28;20041;-68
2022/12/29 06:15:41;;;;;;;16.70;5.07;;;;;;;-0.59;85.82;101175.56;5040676;28;20256;-69
2022/12/29 06:18:06;;;;;;;7.50;4.60;;;;;;;-0.72;85.35;101164.09;5040372;28;20068;-68
2022/12/29 06:20:32;;;;;;;9.17;4.00;;;;;;;-0.69;86.19;101184.84;5015510;28;20040;-70
2022/12/29 06:22:58;;;;;;;6.33;4.67;;;;;;;-0.78;86.16;101170.50;5033790;28;20029;-67
2022/12/29 06:25:23;;;;;;;9.27;4.20;;;;;;;-0.80;86.32;101177.56;5033635;28;20029;-68
2022/12/29 06:27:49;;;;;;;8.17;4.47;;;;;;;-0.83;87.20;101179.50;5033535;28;20029;-69
2022/12/29 06:30:15;;;;;;;7.17;4.27;;;;;;;-0.83;86.96;101176.88;5033680;28;20553;-71
2022/12/29 06:32:41;;;;;;;14.77;4.97;;;;;;;-0.90;87.35;101170.25;5034088;28;20030;-69
2022/12/29 06:35:07;;;;;;;8.70;4.17;;;;;;;-0.89;87.04;101174.56;5021372;28;20260;-70
2022/12/29 06:37:32;;;;;;;9.70;5.17;;;;;;;-0.90;87.80;101167.66;5020843;28;20033;-69
2022/12/29 06:39:58;;;;;;;17.77;6.13;;;;;;;-0.86;87.56;101175.28;5020937;28;20430;-72
2022/12/29 06:42:24;;;;;;;5.73;4.27;;;;;;;-0.84;87.91;101175.19;5033463;28;20038;-70
2022/12/29 06:44:52;;;;;;;11.03;5.40;;;;;;;-0.85;88.42;101170.91;5033225;28;20608;-72
2022/12/29 06:47:18;;;;;;;9.43;5.27;;;;;;;-0.80;87.99;101176.72;5033236;28;20377;-68
2022/12/29 06:49:44;;;;;;;11.27;5.10;;;;;;;-0.95;87.45;101160.06;5015253;28;20264;-69
2022/12/29 06:52:10;;;;;;;10.30;4.40;;;;;;;-0.87;87.88;101176.19;5033285;28;20624;-69
2022/12/29 06:54:35;;;;;;;10.07;4.20;;;;;;;-0.90;87.77;101172.88;5034590;28;20160;-68
2022/12/29 06:57:01;;;;;;;20.73;6.00;;;;;;;-0.93;87.71;101172.13;5000222;28;20045;-70
2022/12/29 06:59:26;;;;;;;10.33;4.40;;;;;;;-1.03;87.98;101170.91;5034148;28;20035;-68
2022/12/29 07:01:52;;;;;;;13.13;5.60;;;;;;;-1.02;88.14;101177.81;5017957;28;20032;-69
2022/12/29 07:04:18;;;;;;;5.63;4.10;;;;;;;-1.05;88.61;101174.53;5017413;28;20532;-69
2022/12/29 07:06:43;;;;;;;7.40;3.40;;;;;;;-1.04;88.34;101169.22;5036362;28;20036;-70
2022/12/29 07:09:10;;;;;;;7.67;4.07;;;;;;;-1.02;88.71;101177.81;5042925;28;20248;-68
2022/12/29 07:11:35;;;;;;;6.40;3.73;;;;;;;-1.06;88.54;101171.06;5038349;28;20067;-68
2022/12/29 07:14:02;;;;;;;9.03;4.57;;;;;;;-1.03;88.92;101176.13;5033039;28;20304;-69
2022/12/29 07:16:29;;;;;;;10.70;5.00;;;;;;;-0.98;88.93;101179.34;5032423;28;20079;-68
2022/12/29 07:18:55;;;;;;;10.30;4.27;;;;;;;-0.93;88.86;101179.13;5032775;28;20291;-68
2022/12/29 07:21:21;;;;;;;6.43;4.67;;;;;;;-0.97;88.92;101180.19;5033161;28;20264;-70
2022/12/29 07:23:47;;;;;;;7.20;3.70;;;;;;;-1.01;89.19;101173.44;5015733;28;20743;-71
2022/12/29 07:26:17;;;;;;;6.67;3.67;;;;;;;-0.97;89.38;101182.81;5015584;28;20029;-70
2022/12/29 07:28:45;;;;;;;11.40;5.27;;;;;;;-0.96;89.57;101189.72;5015279;28;20045;-70
2022/12/29 07:31:19;;;;;;;5.90;4.40;;;;;;;-0.91;89.64;101192.09;5032900;28;20303;-70
2022/12/29 07:33:46;;;;;;;8.90;3.83;;;;;;;-0.89;89.53;101198.09;5032926;28;20036;-68
2022/12/29 07:36:13;;;;;;;10.80;6.40;;;;;;;-0.87;89.57;101198.88;5032915;28;20348;-69
2022/12/29 07:38:39;;;;;;;7.53;4.37;;;;;;;-1.02;89.33;101156.91;5033052;28;20268;-70
2022/12/29 07:41:05;;;;;;;8.63;4.00;;;;;;;-0.82;89.39;101199.50;4997906;28;20379;-73
2022/12/29 07:43:36;;;;;;;9.67;4.57;;;;;;;-0.76;89.24;101199.19;5013945;28;20387;-68
2022/12/29 07:46:03;;;;;;;6.03;3.90;;;;;;;-0.69;89.69;101216.22;5014256;28;20041;-70
2022/12/29 07:48:28;;;;;;;11.23;4.10;;;;;;;-0.63;89.59;101221.13;5014491;28;20253;-70
2022/12/29 07:50:54;;;;;;;11.60;5.10;;;;;;;-0.58;89.13;101224.34;5032104;28;20029;-69
2022/12/29 07:53:19;;;;;;;10.33;5.07;;;;;;;-0.56;89.17;101219.06;5032082;28;20081;-68
2022/12/29 07:55:45;;;;;;;7.23;4.23;;;;;;;-0.54;88.85;101212.00;5032898;28;20075;-70
2022/12/29 07:58:11;;;;;;;11.20;4.57;;;;;;;-0.53;88.99;101214.53;5014970;28;20033;-68
2022/12/29 08:00:38;;;;;;;7.40;4.53;;;;;;;-0.61;89.06;101198.34;5014186;28;20922;-68
2022/12/29 08:03:04;;;;;;;9.77;4.83;;;;;;;-0.59;89.66;101206.97;5014629;28;20083;-71
2022/12/29 08:05:32;;;;;;;10.93;4.93;;;;;;;-0.59;89.55;101199.13;5032681;28;20268;-70
2022/12/29 08:07:57;;;;;;;8.20;4.50;;;;;;;-0.63;89.38;101195.81;5015395;28;20807;-70
2022/12/29 08:10:23;;;;;;;14.07;5.77;;;;;;;-0.66;89.21;101195.16;5032472;28;20295;-68
2022/12/29 08:12:49;;;;;;;9.77;5.23;;;;;;;-0.67;90.15;101198.69;5033863;28;20033;-69
2022/12/29 08:15:15;;;;;;;10.73;5.57;;;;;;;-0.73;89.59;101189.41;5023249;28;20422;-69
2022/12/29 08:17:40;;;;;;;9.20;4.50;;;;;;;-0.88;89.77;101184.09;5017471;28;20476;-69
2022/12/29 08:20:07;;;;;;;6.70;4.77;;;;;;;-0.96;90.12;101187.97;5016454;28;20031;-68
2022/12/29 08:22:32;;;;;;;7.90;4.83;;;;;;;-1.07;90.24;101181.59;4999068;28;20523;-70
2022/12/29 08:24:58;;;;;;;11.33;4.33;;;;;;;-1.23;90.89;101178.91;5048313;28;20276;-68
2022/12/29 08:27:29;;;;;;;7.50;4.57;;;;;;;-1.35;91.71;101180.38;5015668;28;20042;-69
2022/12/29 08:29:54;;;;;;;6.80;4.10;;;;;;;-1.41;92.44;101179.84;5033010;28;20322;-70
2022/12/29 08:32:20;;;;;;;11.63;3.87;;;;;;;-1.57;92.38;101174.50;5031808;28;20029;-70
2022/12/29 08:34:45;;;;;;;8.67;5.00;;;;;;;-1.46;92.88;101187.03;5015237;28;20122;-70
2022/12/29 08:37:11;;;;;;;12.27;4.77;;;;;;;-1.48;93.50;101188.88;5035156;28;20021;-69
2022/12/29 08:39:37;;;;;;;15.23;5.53;;;;;;;-1.44;93.62;101180.00;5002582;28;20026;-71
2022/12/29 08:42:04;;;;;;;13.60;6.30;;;;;;;-1.23;93.87;101191.97;5034583;28;20087;-70
2022/12/29 08:44:30;;;;;;;11.80;5.20;;;;;;;-1.16;93.73;101167.22;5001756;28;20038;-70
2022/12/29 08:46:55;;;;;;;13.63;5.63;;;;;;;-0.91;93.13;101184.25;5036306;28;20272;-69
2022/12/29 08:49:21;;;;;;;19.13;6.20;;;;;;;-0.88;92.74;101169.25;5036272;28;20025;-70
2022/12/29 08:51:47;;;;;;;12.20;5.83;;;;;;;-0.69;92.30;101188.31;5036002;28;20029;-68
2022/12/29 08:54:12;;;;;;;8.17;5.30;;;;;;;-0.67;92.41;101190.84;5001835;28;20033;-68
2022/12/29 08:56:38;;;;;;;10.17;5.90;;;;;;;-0.79;91.82;101167.97;5017483;28;20025;-69
2022/12/29 08:59:03;;;;;;;14.57;7.07;;;;;;;-0.71;92.33;101198.00;5035300;28;20152;-68
2022/12/29 09:01:30;;;;;;;11.83;6.37;;;;;;;-0.73;92.19;101199.00;5035546;28;20021;-69
2022/12/29 09:03:55;;;;;;;17.37;8.17;;;;;;;-0.74;92.43;101208.63;5035064;28;20067;-69
2022/12/29 09:06:21;;;;;;;16.07;7.27;;;;;;;-0.78;92.82;101212.34;5035221;28;20260;-71
2022/12/29 09:08:47;;;;;;;17.30;7.90;;;;;;;-0.83;93.15;101203.03;5034892;28;20056;-72
2022/12/29 09:11:16;;;;;;;18.50;8.20;;;;;;;-0.81;93.07;101211.66;5034738;28;20037;-69
2022/12/29 09:13:41;;;;;;;16.60;8.33;;;;;;;-0.89;93.79;101193.72;5034888;28;20476;-70
2022/12/29 09:16:07;;;;;;;17.37;10.27;;;;;;;-0.92;94.31;101204.34;5017054;28;20252;-67
2022/12/29 09:18:33;;;;;;;16.30;6.67;;;;;;;-0.98;94.22;101195.03;5034862;28;20056;-72
2022/12/29 09:21:06;;;;;;;16.50;8.63;;;;;;;-1.04;94.75;101179.69;5034758;28;20037;-72
2022/12/29 09:23:33;;;;;;;13.30;8.10;;;;;;;-0.96;94.34;101208.88;5034808;28;20040;-70
2022/12/29 09:25:59;;;;;;;11.50;7.77;;;;;;;-0.95;94.73;101205.34;5034632;28;20292;-71
2022/12/29 09:28:26;;;;;;;15.10;7.87;;;;;;;-1.01;95.06;101210.03;5034780;28;20276;-68
2022/12/29 09:30:51;;;;;;;12.10;8.30;;;;;;;-0.99;95.26;101203.81;5034665;28;20263;-71
2022/12/29 09:33:17;;;;;;;17.10;9.17;;;;;;;-1.05;95.75;101214.59;5017075;28;20362;-69
2022/12/29 09:35:49;;;;;;;17.30;7.87;;;;;;;-1.03;95.90;101212.72;5034294;28;20065;-67
2022/12/29 09:38:15;;;;;;;13.40;7.67;;;;;;;-1.09;96.24;101207.81;5034557;28;20029;-70
2022/12/29 09:40:45;;;;;;;15.07;9.83;;;;;;;-1.10;96.05;101207.91;5016477;28;20362;-69
2022/12/29 09:43:29;;;;;;;17.17;10.07;;;;;;;-0.96;96.53;101208.03;5034366;28;20277;-69
2022/12/29 09:46:11;;;;;;;15.73;9.23;;;;;;;-0.90;96.27;101206.88;5034256;28;20768;-69
2022/12/29 09:48:44;;;;;;;18.50;9.03;;;;;;;-0.94;95.72;101203.56;5033031;28;20728;-68
2022/12/29 09:51:16;;;;;;;14.27;9.43;;;;;;;-1.06;96.13;101186.75;5016369;28;20291;-69
2022/12/29 09:54:07;;;;;;;19.93;9.47;;;;;;;-0.95;95.96;101204.50;5034172;28;20623;-71
2022/12/29 09:56:32;;;;;;;20.67;9.57;;;;;;;-1.08;96.22;101198.22;5005824;28;20626;-69
2022/12/29 09:59:07;;;;;;;16.70;9.20;;;;;;;-1.10;96.09;101197.44;5034153;28;20252;-70
2022/12/29 10:01:41;;;;;;;16.27;10.10;;;;;;;-1.06;96.53;101201.59;5034062;28;20068;-70
2022/12/29 10:04:07;;;;;;;16.40;11.10;;;;;;;-1.09;96.24;101197.38;5034262;28;20256;-71
2022/12/29 10:06:57;;;;;;;21.57;10.67;;;;;;;-1.12;96.63;101212.38;5034152;28;20359;-69
2022/12/29 10:10:02;;;;;;;18.33;9.47;;;;;;;-1.15;96.73;101208.13;5034225;28;20104;-70
2022/12/29 10:12:53;;;;;;;17.90;11.47;;;;;;;-1.26;97.11;101206.03;5034204;28;20268;-72
2022/12/29 10:15:41;;;;;;;15.80;10.50;;;;;;;-1.36;97.23;101188.28;5033844;28;20616;-69
2022/12/29 10:18:36;;;;;;;21.10;11.83;;;;;;;-1.26;97.17;101198.19;5033921;28;20393;-68
2022/12/29 10:21:23;;;;;;;21.60;12.00;;;;;;;-1.17;97.70;101207.34;5033897;28;20280;-70
2022/12/29 10:23:52;;;;;;;18.70;12.00;;;;;;;-1.17;96.75;101214.34;5033693;28;20727;-70
2022/12/29 10:26:21;;;;;;;18.90;13.88;;;;;;;-1.23;97.12;101210.25;5033175;28;20655;-74
2022/12/29 10:28:52;;;;;;;22.27;12.93;;;;;;;-1.33;96.99;101209.03;5033265;28;20366;-69
2022/12/29 10:31:32;;;;;;;21.37;13.67;;;;;;;-1.45;97.64;101202.63;5033488;28;20314;-69
2022/12/29 10:34:37;;;;;;;17.87;11.90;;;;;;;-1.75;98.87;101150.13;5033661;28;20268;-71
2022/12/29 10:37:14;;;;;;;23.90;13.87;;;;;;;-1.48;98.94;101196.72;5031195;28;20268;-69
2022/12/29 10:39:51;;;;;;;19.67;12.13;;;;;;;-1.48;99.05;101188.88;5033409;28;20288;-68
2022/12/29 10:42:22;;;;;;;23.20;13.53;;;;;;;-1.42;99.01;101199.06;5033515;28;20288;-71
2022/12/29 10:44:48;;;;;;;17.13;12.20;;;;;;;-1.47;98.49;101194.03;5015609;28;20279;-69
2022/12/29 10:47:19;;;;;;;18.77;13.17;;;;;;;-1.64;99.49;101187.03;5015248;28;20260;-70
2022/12/29 10:49:47;;;;;;;22.10;13.00;;;;;;;-1.68;99.66;101203.78;5033755;28;20063;-68
2022/12/29 10:52:16;;;;;;;19.90;12.85;;;;;;;-1.79;99.87;101194.75;5033441;28;20336;-70
2022/12/29 10:54:54;;;;;;;21.47;12.23;;;;;;;-1.79;100.00;101190.38;5015491;28;20056;-69
2022/12/29 10:57:52;;;;;;;17.77;11.73;;;;;;;-1.75;100.00;101193.66;5032837;28;20255;-70
2022/12/29 11:00:22;;;;;;;24.20;12.17;;;;;;;-1.73;100.00;101191.88;5029495;28;20667;-69
2022/12/29 11:03:01;;;;;;;23.30;13.63;;;;;;;-1.79;100.00;101190.38;5032756;28;20272;-70
2022/12/29 11:05:40;;;;;;;26.07;14.57;;;;;;;-1.74;100.00;101188.38;5032821;28;20267;-70
2022/12/29 11:08:16;;;;;;;19.13;12.80;;;;;;;-1.66;100.00;101180.19;5033105;28;20279;-69
2022/12/29 11:13:28;;;;;;;20.30;12.17;;;;;;;-1.59;98.98;101199.88;5378320;23;20362;-68
2022/12/29 11:15:54;;;;;;;15.50;10.37;;;;;;;-1.69;99.20;101206.47;5032099;28;20272;-68
2022/12/29 11:18:25;;;;;;;18.30;11.47;;;;;;;-1.76;99.59;101192.81;5032415;28;20252;-70
2022/12/29 11:20:59;;;;;;;16.93;10.70;;;;;;;-1.71;99.98;101190.88;5032648;28;20029;-71
2022/12/29 11:23:39;;;;;;;14.83;9.93;;;;;;;-1.63;100.00;101183.50;5032689;28;20288;-70
2022/12/29 11:26:13;;;;;;;18.50;11.63;;;;;;;-1.67;98.93;101189.78;5032641;28;20256;-70
2022/12/29 11:28:41;;;;;;;18.50;12.40;;;;;;;-1.72;99.58;101197.00;5032935;28;20260;-69
2022/12/29 11:31:08;;;;;;;20.88;11.73;;;;;;;-1.73;99.62;101199.69;5032201;28;20586;-69
2022/12/29 11:33:35;;;;;;;20.50;12.03;;;;;;;-1.78;100.00;101188.59;5032067;28;20033;-68
2022/12/29 11:36:16;;;;;;;18.20;12.13;;;;;;;-1.83;100.00;101188.81;5032192;28;20696;-69
2022/12/29 11:38:50;;;;;;;19.03;11.90;;;;;;;-1.86;100.00;101178.53;5032323;28;20283;-73
2022/12/29 11:41:25;;;;;;;22.13;12.20;;;;;;;-1.71;100.00;101176.97;5031978;28;20284;-69
2022/12/29 11:43:52;;;;;;;17.23;11.10;;;;;;;-1.53;100.00;101190.88;5031654;28;20253;-69
2022/12/29 11:46:25;;;;;;;22.77;13.47;;;;;;;-1.59;98.97;101178.97;5014906;28;20268;-68
2022/12/29 11:48:51;;;;;;;23.27;10.80;;;;;;;-1.63;99.21;101188.72;5032592;28;20264;-68
2022/12/29 11:51:23;;;;;;;20.07;12.10;;;;;;;-1.71;99.43;101185.66;5032302;28;20356;-67
2022/12/29 11:53:59;;;;;;;17.03;10.53;;;;;;;-1.76;99.90;101192.81;5031867;28;20484;-71
2022/12/29 11:56:42;;;;;;;15.53;11.63;;;;;;;-1.78;99.20;101186.84;5032349;28;20306;-70
2022/12/29 11:59:26;;;;;;;18.77;10.83;;;;;;;-1.84;99.67;101181.06;5031962;28;20284;-70
2022/12/29 12:01:53;;;;;;;16.30;10.20;;;;;;;-1.87;100.00;101171.63;5031929;28;20249;-68
2022/12/29 12:04:22;;;;;;;15.70;10.97;;;;;;;-1.80;99.46;101170.41;5030399;28;20255;-68
2022/12/29 12:07:01;;;;;;;17.53;9.70;;;;;;;-1.88;99.51;101177.75;5014188;28;20276;-67
2022/12/29 12:09:36;;;;;;;12.83;8.33;;;;;;;-1.95;99.88;101178.97;5030799;28;20268;-69